Data for 09/06/2015

Time Sea-Level Adjusted Pressure Absolute Pressure Temperature Relative Humidity Dew Point   
(mb) (inHg) (mb) (inHg) (C) (F) (%) (C) (F)
00:05 1020 30.12 849 25.07 6.5 43.6 58 -1.3 29.7
00:10 1020 30.12 849 25.07 6.8 44.2 55 -1.6 29.1
00:15 1020 30.12 849 25.07 7 44.7 53 -2 28.5
00:20 1020 30.12 849 25.07 7.3 45.1 54 -1.5 29.3
00:25 1020 30.12 849 25.07 6.9 44.5 54 -1.6 29.1
00:30 1020 30.12 849 25.07 7 44.6 52 -2.1 28.3
00:35 1020 30.12 849 25.07 7.2 45 51 -2.3 27.9
00:40 1020 30.12 849 25.07 7.4 45.3 51 -2.1 28.3
00:45 1020 30.12 849 25.07 7.3 45.1 52 -1.9 28.5
00:50 1020 30.12 849 25.07 7.1 44.7 53 -1.9 28.5
00:55 1020 30.12 849 25.07 6.8 44.2 54 -1.8 28.7
01:00 1020 30.12 850 25.1 6.5 43.7 55 -1.9 28.5
01:05 1020 30.12 850 25.1 6.2 43.2 55 -2 28.3
01:10 1020 30.12 850 25.1 6 42.8 57 -1.8 28.8
01:15 1020 30.12 850 25.1 5.6 42.1 61 -1.4 29.4
01:20 1020 30.12 850 25.1 5.2 41.3 62 -1.6 29.1
01:25 1020 30.12 850 25.1 4.9 40.8 61 -1.9 28.6
01:30 1020 30.12 850 25.1 4.9 40.9 59 -2.4 27.6
01:35 1020 30.12 850 25.1 5 41.1 58 -2.5 27.6
01:40 1020 30.12 850 25.1 5.4 41.6 56 -2.7 27.1
01:45 1020 30.12 850 25.1 5.6 42.1 57 -2.2 28
01:50 1020 30.12 850 25.1 5.6 42.2 54 -3 26.7
01:55 1020 30.12 849 25.07 6.2 43.1 51 -3.3 26
02:00 1020 30.12 849 25.07 7 44.6 47 -3.7 25.4
02:05 1020 30.12 849 25.07 7.6 45.6 45 -3.7 25.4
02:10 1020 30.12 849 25.07 7.7 45.9 46 -3.1 26.3
02:15 1020 30.12 849 25.07 7.5 45.6 46 -3.3 26.1
02:20 1020 30.12 849 25.07 7.6 45.7 45 -3.4 25.8
02:25 1020 30.12 849 25.07 7.7 45.8 46 -3.2 26.3
02:30 1020 30.12 849 25.07 7.5 45.5 48 -2.8 27
02:35 1020 30.12 850 25.1 7.1 44.8 49 -2.9 26.8
02:40 1020 30.12 850 25.1 7 44.7 49 -3 26.6
02:45 1020 30.12 850 25.1 6.9 44.4 49 -3 26.6
02:50 1020 30.12 850 25.1 6.8 44.3 49 -3 26.6
02:55 1020 30.12 850 25.1 6.9 44.4 48 -3.4 25.9
03:00 1020 30.12 850 25.1 7 44.6 47 -3.5 25.6
03:05 1021 30.15 850 25.1 7.1 44.8 46 -3.6 25.6
03:10 1021 30.15 850 25.1 7.2 44.9 47 -3.3 26
03:15 1021 30.15 850 25.1 7 44.7 48 -3.2 26.3
03:20 1021 30.15 850 25.1 6.8 44.3 50 -3 26.6
03:25 1021 30.15 850 25.1 6.7 44 50 -3.1 26.4
03:30 1021 30.15 850 25.1 6.4 43.5 52 -2.7 27.1
03:35 1021 30.15 850 25.1 6 42.8 52 -3.1 26.5
03:40 1021 30.15 850 25.1 5.9 42.6 54 -2.8 27
03:45 1021 30.15 850 25.1 5.5 41.9 55 -2.8 27
03:50 1021 30.15 850 25.1 5.2 41.4 55 -3.2 26.3
03:55 1021 30.15 850 25.1 5.4 41.7 53 -3.3 26.1
04:00 1021 30.15 850 25.1 5.5 41.9 52 -3.5 25.6
04:05 1021 30.15 850 25.1 5.6 42.1 52 -3.4 25.9
04:10 1021 30.15 850 25.1 5.5 42 51 -3.8 25.2
04:15 1021 30.15 850 25.1 5.6 42.1 52 -3.5 25.6
04:20 1021 30.15 850 25.1 5.6 42.1 51 -3.8 25.2
04:25 1021 30.15 850 25.1 5.8 42.4 49 -4.1 24.6
04:30 1021 30.15 850 25.1 6 42.8 48 -4 24.7
04:35 1021 30.15 850 25.1 6 42.8 48 -4.1 24.6
04:40 1021 30.15 850 25.1 6 42.7 47 -4.4 24.2
04:45 1021 30.15 850 25.1 5.8 42.4 50 -3.9 24.9
04:50 1021 30.15 850 25.1 5.4 41.7 50 -4.2 24.5
04:55 1021 30.15 850 25.1 5.4 41.7 50 -4.2 24.4
05:00 1021 30.15 850 25.1 5.4 41.8 50 -4.2 24.5
05:05 1021 30.15 850 25.1 5.5 41.9 50 -4.1 24.7
05:10 1021 30.15 850 25.1 5.7 42.3 49 -4.2 24.4
05:15 1021 30.15 850 25.1 5.9 42.6 48 -4.3 24.2
05:20 1021 30.15 851 25.13 6.1 42.9 47 -4.5 23.9
05:25 1021 30.15 851 25.13 6.1 43 48 -4.2 24.4
05:30 1021 30.15 851 25.13 6.1 42.9 47 -4.3 24.2
05:35 1021 30.15 851 25.13 6 42.9 47 -4.3 24.3
05:40 1022 30.18 851 25.13 6.2 43.1 46 -4.7 23.6
05:45 1022 30.18 851 25.13 6.3 43.4 46 -4.6 23.7
05:50 1022 30.18 851 25.13 6.3 43.4 46 -4.5 23.9
05:55 1022 30.18 851 25.13 6.2 43.2 45 -4.7 23.5
06:00 1022 30.18 851 25.13 6.2 43.2 45 -4.9 23.2
06:05 1022 30.18 851 25.13 6.1 43 46 -4.7 23.5
06:10 1022 30.18 851 25.13 5.9 42.5 47 -4.5 24
06:15 1022 30.18 851 25.13 5.7 42.3 47 -4.6 23.7
06:20 1022 30.18 851 25.13 5.7 42.2 48 -4.4 24.1
06:25 1022 30.18 851 25.13 5.5 41.9 48 -4.6 23.7
06:30 1022 30.18 851 25.13 6 42.7 45 -5.1 22.8
06:35 1022 30.18 851 25.13 6.4 43.6 44 -4.8 23.4
06:40 1022 30.18 851 25.13 6.6 44 44 -4.9 23.2
06:45 1022 30.18 851 25.13 7 44.5 43 -4.9 23.3
06:50 1022 30.18 851 25.13 7.1 44.8 43 -4.6 23.7
06:55 1022 30.18 851 25.13 7.2 45 42 -4.8 23.3
07:00 1022 30.18 851 25.13 7.4 45.3 43 -4.2 24.4
07:05 1022 30.18 851 25.13 7.5 45.6 41 -4.8 23.3
07:10 1022 30.18 851 25.13 7.7 45.9 42 -4.5 23.8
07:15 1022 30.18 851 25.13 7.8 46.1 40 -4.8 23.3
07:20 1022 30.18 851 25.13 8.2 46.7 40 -4.6 23.7
07:25 1022 30.18 851 25.13 8.4 47.1 39 -4.6 23.7
07:30 1022 30.18 851 25.13 8.7 47.7 38 -4.9 23.2
07:35 1022 30.18 851 25.13 9.1 48.4 37 -4.9 23.3
07:40 1022 30.18 851 25.13 9.4 48.9 35 -5.2 22.7
07:45 1022 30.18 851 25.13 9.5 49 35 -5.2 22.7
07:50 1022 30.18 851 25.13 9.6 49.2 34 -5.4 22.2
07:55 1022 30.18 851 25.13 9.7 49.4 34 -5.5 22.1
08:00 1022 30.18 851 25.13 9.6 49.2 35 -5.3 22.4
08:05 1022 30.18 851 25.13 9.8 49.7 34 -5.5 22.2
08:10 1022 30.18 851 25.13 10 49.9 33 -5.4 22.4
08:15 1022 30.18 851 25.13 10 50 33 -5.6 22
08:20 1022 30.18 851 25.13 10 50 33 -5.5 22.1
08:25 1022 30.18 851 25.13 10.2 50.3 33 -5.4 22.2
08:30 1022 30.18 851 25.13 10.1 50.2 33 -5.5 22.1
08:35 1022 30.18 851 25.13 10.3 50.5 34 -5 23
08:40 1022 30.18 851 25.13 10.5 50.9 32 -5.5 22.2
08:45 1022 30.18 851 25.13 10.6 51 32 -5.2 22.6
08:50 1022 30.18 851 25.13 10.7 51.2 32 -5.3 22.5
08:55 1022 30.18 851 25.13 10.9 51.6 31 -5.4 22.3
09:00 1022 30.18 851 25.13 10.7 51.2 31 -5.7 21.7
09:05 1022 30.18 851 25.13 10.8 51.4 32 -5.4 22.3
09:10 1022 30.18 851 25.13 11.5 52.7 29 -5.8 21.6
09:15 1022 30.18 851 25.13 11.6 52.9 29 -5.7 21.7
09:20 1022 30.18 852 25.16 11.4 52.5 30 -5.6 21.8
09:25 1022 30.18 852 25.16 11.7 53.1 30 -5.4 22.3
09:30 1022 30.18 852 25.16 11.5 52.7 28 -6.2 20.9
09:35 1022 30.18 852 25.16 11.6 52.9 28 -6.4 20.6
09:40 1022 30.18 851 25.13 12.1 53.7 28 -6.1 21
09:45 1022 30.18 852 25.16 12.5 54.4 27 -6 21.2
09:50 1022 30.18 851 25.13 12.5 54.6 27 -6.1 21
09:55 1022 30.18 851 25.13 12.6 54.6 26 -6.5 20.3
10:00 1022 30.18 851 25.13 12.7 54.9 27 -5.8 21.6
10:05 1022 30.18 851 25.13 13.1 55.7 23 -7.3 18.9
10:10 1022 30.18 851 25.13 12.9 55.2 24 -7.1 19.3
10:15 1022 30.18 851 25.13 13.6 56.6 23 -7.2 19
10:20 1022 30.18 851 25.13 14.1 57.4 21 -8 17.6
10:25 1022 30.18 851 25.13 14.2 57.5 22 -7.3 18.9
10:30 1022 30.18 851 25.13 14.5 58.1 21 -7.4 18.7
10:35 1022 30.18 851 25.13 14.4 58 21 -7.3 18.8
10:40 1022 30.18 851 25.13 14.7 58.4 19 -8.5 16.7
10:45 1022 30.18 851 25.13 14.3 57.7 20 -8.1 17.5
10:50 1022 30.18 851 25.13 14.1 57.4 21 -8.1 17.5
10:55 1022 30.18 851 25.13 14.6 58.4 20 -7.9 17.8
11:00 1022 30.18 851 25.13 15.1 59.2 19 -8.1 17.4
11:05 1022 30.18 851 25.13 14.6 58.3 19 -8.8 16.2
11:10 1022 30.18 851 25.13 15.1 59.2 19 -8 17.6
11:15 1022 30.18 851 25.13 15 58.9 18 -9.1 15.6
11:20 1022 30.18 851 25.13 14.6 58.2 21 -7.6 18.4
11:25 1022 30.18 851 25.13 14.7 58.4 21 -7.5 18.4
11:30 1022 30.18 851 25.13 14.6 58.3 19 -8.7 16.3
11:35 1022 30.18 851 25.13 15.1 59.1 19 -8.5 16.7
11:40 1022 30.18 851 25.13 14.7 58.5 19 -8.4 16.9
11:45 1021 30.15 851 25.13 14.9 58.8 19 -8.6 16.6
11:50 1021 30.15 851 25.13 15.4 59.8 19 -8.1 17.4
11:55 1021 30.15 851 25.13 15.4 59.7 18 -8.4 16.8
12:00 1021 30.15 851 25.13 15.6 60.1 19 -8 17.5
12:05 1021 30.15 851 25.13 15.3 59.5 19 -8 17.6
12:10 1021 30.15 850 25.1 15.3 59.5 18 -8.5 16.7
12:15 1021 30.15 850 25.1 15.6 60 17 -9.2 15.5
12:20 1021 30.15 850 25.1 16 60.7 19 -7.9 17.8
12:25 1021 30.15 850 25.1 15.8 60.5 18 -8.7 16.4
12:30 1021 30.15 850 25.1 16.3 61.3 17 -8.4 16.9
12:35 1021 30.15 850 25.1 17 62.5 15 -9.4 15.1
12:40 1021 30.15 850 25.1 16.8 62.2 14 -10.8 12.6
12:45 1021 30.15 850 25.1 16.6 61.9 14 -10.7 12.8
12:50 1021 30.15 850 25.1 16.9 62.4 15 -10.1 13.9
12:55 1021 30.15 850 25.1 17.2 62.9 15 -9.8 14.3
13:00 1021 30.15 850 25.1 17.6 63.7 14 -10.4 13.4
13:05 1021 30.15 850 25.1 17.2 63 14 -10.4 13.2
13:10 1021 30.15 850 25.1 17.3 63.1 14 -10.5 13
13:15 1021 30.15 850 25.1 17.5 63.6 14 -9.9 14.2
13:20 1021 30.15 850 25.1 17.7 63.9 15 -9.3 15.2
13:25 1021 30.15 850 25.1 17.5 63.5 14 -10.2 13.7
13:30 1020 30.12 850 25.1 17.3 63.1 15 -9.7 14.5
13:35 1020 30.12 850 25.1 17.2 63 14 -10.4 13.2
13:40 1020 30.12 850 25.1 17.3 63.1 14 -10.3 13.5
13:45 1020 30.12 850 25.1 17.2 63 16 -8.7 16.3
13:50 1020 30.12 849 25.07 17.8 64 15 -9.3 15.2
13:55 1020 30.12 849 25.07 17.8 64 15 -9.6 14.8
14:00 1020 30.12 849 25.07 17.9 64.2 15 -9.4 15.1
14:05 1020 30.12 849 25.07 17.9 64.1 15 -9.5 14.9
14:10 1020 30.12 849 25.07 18 64.4 14 -9.9 14.1
14:15 1020 30.12 849 25.07 18 64.5 14 -9.7 14.5
14:20 1020 30.12 849 25.07 18.1 64.6 14 -9.4 15
14:25 1020 30.12 849 25.07 18 64.5 15 -9.3 15.3
14:30 1020 30.12 849 25.07 17.9 64.3 14 -10.1 13.7
14:35 1020 30.12 849 25.07 17.9 64.3 14 -9.9 14.1
14:40 1020 30.12 849 25.07 18 64.4 14 -9.9 14.2
14:45 1020 30.12 849 25.07 17.9 64.2 14 -9.8 14.3
14:50 1020 30.12 849 25.07 18.4 65.1 15 -9.1 15.7
14:55 1020 30.12 849 25.07 18.6 65.6 14 -9.4 15.1
15:00 1019 30.09 849 25.07 18.1 64.5 14 -9.6 14.7
15:05 1019 30.09 849 25.07 18.1 64.5 14 -10 14.1
15:10 1019 30.09 849 25.07 18.1 64.6 14 -9.8 14.3
15:15 1019 30.09 849 25.07 18.2 64.8 14 -10.1 13.9
15:20 1019 30.09 849 25.07 18.2 64.7 14 -9.4 15
15:25 1019 30.09 849 25.07 18.3 65 14 -9.7 14.5
15:30 1019 30.09 849 25.07 18.3 64.9 15 -9 15.8
15:35 1019 30.09 848 25.04 18.2 64.7 14 -9.8 14.3
15:40 1019 30.09 848 25.04 18.1 64.6 13 -10.4 13.2
15:45 1019 30.09 848 25.04 17.8 64.1 14 -9.7 14.6
15:50 1019 30.09 848 25.04 17.8 64.1 15 -9.5 14.9
15:55 1019 30.09 848 25.04 17.7 63.8 15 -9.2 15.5
16:00 1019 30.09 848 25.04 17.4 63.4 15 -9.3 15.3
16:05 1019 30.09 848 25.04 17.5 63.5 16 -8.8 16.1
16:10 1019 30.09 848 25.04 17.5 63.6 17 -7.6 18.3
16:15 1019 30.09 848 25.04 17.9 64.3 16 -8.5 16.6
16:20 1019 30.09 848 25.04 17.9 64.2 15 -8.7 16.4
16:25 1019 30.09 848 25.04 17.8 64.1 17 -7.4 18.7
16:30 1019 30.09 848 25.04 17.8 64.1 17 -7.4 18.7
16:35 1019 30.09 848 25.04 17.9 64.3 17 -7.3 18.8
16:40 1019 30.09 848 25.04 17.9 64.1 17 -7.4 18.7
16:45 1019 30.09 848 25.04 17.9 64.3 18 -6.5 20.2
16:50 1019 30.09 848 25.04 18 64.4 18 -6.4 20.5
16:55 1019 30.09 848 25.04 17.9 64.2 19 -6.3 20.7
17:00 1019 30.09 848 25.04 17.6 63.7 18 -6.8 19.7
17:05 1019 30.09 848 25.04 17.5 63.6 18 -6.9 19.7
17:10 1019 30.09 848 25.04 17.4 63.3 18 -6.9 19.7
17:15 1019 30.09 848 25.04 17 62.7 19 -6.5 20.2
17:20 1019 30.09 848 25.04 16.9 62.4 19 -6.5 20.3
17:25 1019 30.09 848 25.04 16.6 61.8 21 -6.1 21.1
17:30 1019 30.09 848 25.04 16.5 61.6 20 -6.5 20.4
17:35 1019 30.09 848 25.04 16.3 61.3 20 -6.4 20.5
17:40 1019 30.09 848 25.04 16.1 61 20 -6.9 19.6
17:45 1019 30.09 848 25.04 16 60.9 19 -7.7 18.1
17:50 1019 30.09 848 25.04 16 60.9 19 -7.2 19
17:55 1019 30.09 848 25.04 15.9 60.6 19 -7.3 18.8
18:00 1019 30.09 848 25.04 15.8 60.4 20 -7.2 19
18:05 1019 30.09 848 25.04 15.7 60.3 20 -7.4 18.7
18:10 1019 30.09 848 25.04 15.6 60.1 21 -6.7 20
18:15 1019 30.09 849 25.07 15.5 59.9 21 -6.6 20.1
18:20 1019 30.09 849 25.07 15.5 59.9 21 -6.5 20.3
18:25 1019 30.09 849 25.07 15.4 59.7 21 -6.9 19.7
18:30 1019 30.09 849 25.07 15.3 59.5 21 -6.9 19.7
18:35 1019 30.09 849 25.07 15.2 59.3 21 -6.8 19.7
18:40 1019 30.09 849 25.07 15.1 59.1 21 -7.1 19.1
18:45 1019 30.09 849 25.07 15 59.1 21 -6.8 19.7
18:50 1019 30.09 849 25.07 15 58.9 21 -6.9 19.7
18:55 1019 30.09 849 25.07 14.9 58.7 21 -7 19.4
19:00 1019 30.09 849 25.07 14.8 58.6 22 -6.7 20
19:05 1020 30.12 849 25.07 14.6 58.4 22 -6.5 20.2
19:10 1020 30.12 849 25.07 14.4 58 22 -6.8 19.7
19:15 1020 30.12 849 25.07 14.5 58.1 22 -7.2 19.1
19:20 1020 30.12 849 25.07 14.5 58.1 22 -6.8 19.8
19:25 1020 30.12 849 25.07 14.4 57.8 23 -6.5 20.3
19:30 1020 30.12 849 25.07 14.2 57.5 24 -6 21.2
19:35 1020 30.12 849 25.07 14 57.2 25 -5.7 21.7
19:40 1020 30.12 849 25.07 13.9 56.9 24 -6.2 20.9
19:45 1020 30.12 849 25.07 14 57.2 24 -6.3 20.7
19:50 1020 30.12 849 25.07 14 57.3 24 -6 21.3
19:55 1020 30.12 849 25.07 14.1 57.3 25 -5.5 22.2
20:00 1020 30.12 849 25.07 14 57.2 26 -5.3 22.5
20:05 1020 30.12 849 25.07 14 57.1 25 -5.5 22.1
20:10 1020 30.12 849 25.07 14 57.1 25 -5.9 21.3
20:15 1020 30.12 849 25.07 13.9 57.1 27 -4.7 23.5
20:20 1020 30.12 849 25.07 13.6 56.5 27 -4.8 23.3
20:25 1020 30.12 849 25.07 13.3 55.9 27 -5.2 22.6
20:30 1020 30.12 849 25.07 13 55.4 28 -5 23.1
20:35 1020 30.12 849 25.07 12.7 54.9 29 -4.9 23.3
20:40 1020 30.12 849 25.07 12.6 54.7 28 -5.3 22.4
20:45 1020 30.12 849 25.07 12.7 54.8 27 -5.7 21.8
20:50 1020 30.12 849 25.07 12.8 55.1 30 -4.4 24
20:55 1020 30.12 849 25.07 12.6 54.6 28 -5.3 22.4
21:00 1020 30.12 849 25.07 12.5 54.4 28 -5.4 22.2
21:05 1020 30.12 849 25.07 12.6 54.7 28 -5.6 21.9
21:10 1020 30.12 849 25.07 12.8 55 27 -5.5 22.1
21:15 1020 30.12 849 25.07 12.8 55.1 28 -5.1 22.8
21:20 1020 30.12 849 25.07 12.6 54.6 30 -4.5 23.9
21:25 1020 30.12 849 25.07 12.2 53.9 34 -3.3 26.1
21:30 1020 30.12 849 25.07 11.7 53.1 32 -4.5 24
21:35 1020 30.12 849 25.07 11.6 52.9 33 -3.9 24.9
21:40 1020 30.12 849 25.07 11.3 52.3 33 -4.4 24.1
21:45 1020 30.12 849 25.07 11 51.8 34 -4.4 24.1
21:50 1020 30.12 849 25.07 10.9 51.6 33 -4.6 23.7
21:55 1020 30.12 849 25.07 11.1 51.9 32 -4.8 23.3
22:00 1020 30.12 849 25.07 10.9 51.5 36 -3.7 25.3
22:05 1020 30.12 849 25.07 10.5 50.9 36 -4 24.8
22:10 1020 30.12 849 25.07 10.1 50.2 35 -4.7 23.6
22:15 1020 30.12 849 25.07 9.9 49.8 39 -3.3 26
22:20 1020 30.12 849 25.07 9.6 49.3 36 -4.7 23.6
22:25 1020 30.12 849 25.07 9.8 49.6 37 -4.1 24.5
22:30 1020 30.12 849 25.07 9.4 48.9 37 -4.4 24.1
22:35 1020 30.12 849 25.07 9.4 49 38 -4.3 24.3
22:40 1020 30.12 849 25.07 9.3 48.7 38 -4.3 24.3
22:45 1020 30.12 849 25.07 9 48.3 37 -5 23
22:50 1020 30.12 849 25.07 9 48.2 35 -5.7 21.8
22:55 1020 30.12 849 25.07 9.3 48.7 34 -5.8 21.6
23:00 1020 30.12 849 25.07 9.4 49 34 -5.7 21.7
23:05 1020 30.12 849 25.07 9.6 49.3 33 -5.9 21.3
23:10 1020 30.12 849 25.07 9.6 49.3 33 -5.7 21.8
23:15 1020 30.12 849 25.07 9.3 48.8 34 -5.7 21.7
23:20 1020 30.12 849 25.07 9.2 48.5 35 -5.6 22
23:25 1020 30.12 849 25.07 9 48.1 35 -5.6 21.9
23:30 1020 30.12 849 25.07 8.8 47.8 36 -5.7 21.8
23:35 1020 30.12 849 25.07 8.6 47.5 36 -5.6 21.9
23:40 1020 30.12 849 25.07 8.5 47.4 38 -5.1 22.9
23:45 1020 30.12 849 25.07 8.5 47.2 37 -5.5 22.1
23:50 1020 30.12 849 25.07 8.4 47.1 37 -5.6 21.9
23:55 1020 30.12 849 25.07 8.2 46.8 37 -5.7 21.7
24:00 1020 30.12 849 25.07 8.3 46.9 36 -6 21.2